AGROMETEOROLOŠKI PORTAL

vinorodna pokrajina

Temelj dobrega kmetovanja

Pregled podatkov za lokacijo Kasaze (Mirosan), meteorološka postaja 516313

Pregled senzorjev na lokaciji

ID Ime Zadnja
vrednost
Datum in čas
meritve
(lokalni čas)
Tip
senzorja
6969 Omočenost lista (1,5 m) (U) 10 U 30.9.2022 10:30 A730WET
6970 Padavine (mm) 0 mm 30.9.2022 10:30 Generic 0.2 mm
6968 Relativna zračna vlaga (2 m) (%RH) 87 %RH 30.9.2022 10:30 50YA
6967 Temperatura (2 m) (°C) 15,1 °C 30.9.2022 10:30 50YA
6977 Hitrost vetra (3 m) (km/h) 4 km/h 30.9.2022 10:30 Generic 200 km/h

Pregled podatkov zadnjih 24 ur

Zap.
št.
Datum in čas
(lokalni čas)
Kasaze (Mirosan)
Omočenost
lista
(1,5
m)
Padavine Relativna
zračna
vlaga
(2
m)
Temperatura
(2
m)
Hitrost
vetra
(3
m)
1 30.9.2022 10:30 10 0 87 15,1 3,5
2 30.9.2022 10:00 10 0 93,3 13,6 3,1
3 30.9.2022 09:30 10 0 99,2 12,6 2
4 30.9.2022 09:00 10 0 100 11,7 1,7
5 30.9.2022 08:30 10 0 100 10,9 2,2
6 30.9.2022 08:00 10 0,2 100 10,3 1,4
7 30.9.2022 07:30 10 0 100 10,1 1,8
8 30.9.2022 07:00 10 0 100 10 1,2
9 30.9.2022 06:30 10 0 100 10,1 1
10 30.9.2022 06:00 10 0 100 10,2 1,4
11 30.9.2022 05:30 10 0 100 10,1 2,2
12 30.9.2022 05:00 10 0,2 100 10,1 2,6
13 30.9.2022 04:30 10 0 100 10,1 2,4
14 30.9.2022 04:00 10 1,4 100 10,1 3,2
15 30.9.2022 03:30 10 0 100 10,3 4,7
16 30.9.2022 03:00 10 0,2 100 10,3 2
17 30.9.2022 02:30 10 0 100 10,3 1,2
18 30.9.2022 02:00 10 0 100 10,3 1,3
19 30.9.2022 01:30 10 0 100 10,2 0,7
20 30.9.2022 01:00 10 0 100 10,2 1,7
21 30.9.2022 00:30 10 0,2 100 10,2 0,8
22 30.9.2022 00:00 10 0 100 10,1 1,9
23 29.9.2022 23:30 10 0 100 10,1 0,7
24 29.9.2022 23:00 10 0 100 10,1 1,9
25 29.9.2022 22:30 10 0 100 10,1 1,5
26 29.9.2022 22:00 10 0 100 10 1,9
27 29.9.2022 21:30 10 0,2 100 10 1,5
28 29.9.2022 21:00 10 0 100 10 1,2
29 29.9.2022 20:30 10 0,6 100 9,9 2,3
30 29.9.2022 20:00 10 2,8 100 9,8 3,2
31 29.9.2022 19:30 10 0 100 9,8 2,7
32 29.9.2022 19:00 10 0,6 100 10 3,6
33 29.9.2022 18:30 10 0 100 10 2,3
34 29.9.2022 18:00 10 0 100 10 2,3
35 29.9.2022 17:30 10 2 99,8 10 2,7
36 29.9.2022 17:00 10 0 99,6 10,2 2,7
37 29.9.2022 16:30 10 0 99 10,2 1,7
38 29.9.2022 16:00 10 0 98,7 10,2 2,6
39 29.9.2022 15:30 10 0,2 99,2 10,3 3,5
40 29.9.2022 15:00 10 0 99,2 10,1 3,1
41 29.9.2022 14:30 10 0,8 99 9,9 4,2
42 29.9.2022 14:00 10 0,4 98,1 9,8 3,8
43 29.9.2022 13:30 10 0,2 98,7 9,9 5,1
44 29.9.2022 13:00 10 1,4 98,7 9,5 6,9
45 29.9.2022 12:30 10 0,8 98,7 9,5 6
46 29.9.2022 12:00 10 1 99,1 9,6 6,1